sensor_id;sensor_type;location;lat;lon;timestamp;pressure;altitude;pressure_sealevel;temperature
71960;BMP280;59832;51.146;14.024;2024-02-21T00:00:42;98856.69;;;6.30
71960;BMP280;59832;51.146;14.024;2024-02-21T00:03:09;98851.50;;;6.35
71960;BMP280;59832;51.146;14.024;2024-02-21T00:05:36;98849.72;;;6.35
71960;BMP280;59832;51.146;14.024;2024-02-21T00:08:02;98851.72;;;6.47
71960;BMP280;59832;51.146;14.024;2024-02-21T00:10:29;98839.94;;;6.42
71960;BMP280;59832;51.146;14.024;2024-02-21T00:12:58;98840.50;;;6.39
71960;BMP280;59832;51.146;14.024;2024-02-21T00:15:26;98840.97;;;6.41
71960;BMP280;59832;51.146;14.024;2024-02-21T00:17:52;98833.25;;;6.38
71960;BMP280;59832;51.146;14.024;2024-02-21T00:20:19;98842.91;;;6.44
71960;BMP280;59832;51.146;14.024;2024-02-21T00:22:46;98829.84;;;6.51
71960;BMP280;59832;51.146;14.024;2024-02-21T00:25:13;98831.47;;;6.47
71960;BMP280;59832;51.146;14.024;2024-02-21T00:27:39;98820.16;;;6.44
71960;BMP280;59832;51.146;14.024;2024-02-21T00:30:06;98816.31;;;6.47
71960;BMP280;59832;51.146;14.024;2024-02-21T00:32:32;98819.72;;;6.51
71960;BMP280;59832;51.146;14.024;2024-02-21T00:35:00;98821.22;;;6.52
71960;BMP280;59832;51.146;14.024;2024-02-21T00:37:28;98811.28;;;6.56
71960;BMP280;59832;51.146;14.024;2024-02-21T00:39:55;98809.91;;;6.58
71960;BMP280;59832;51.146;14.024;2024-02-21T00:42:21;98807.69;;;6.57
71960;BMP280;59832;51.146;14.024;2024-02-21T00:44:48;98811.81;;;6.44
71960;BMP280;59832;51.146;14.024;2024-02-21T00:47:14;98808.53;;;6.43
71960;BMP280;59832;51.146;14.024;2024-02-21T00:49:41;98800.09;;;6.57
71960;BMP280;59832;51.146;14.024;2024-02-21T00:52:07;98799.66;;;6.63
71960;BMP280;59832;51.146;14.024;2024-02-21T00:54:34;98796.81;;;6.56
71960;BMP280;59832;51.146;14.024;2024-02-21T00:57:15;98793.13;;;6.62
71960;BMP280;59832;51.146;14.024;2024-02-21T00:59:42;98793.88;;;6.54
71960;BMP280;59832;51.146;14.024;2024-02-21T01:02:08;98783.13;;;6.57
71960;BMP280;59832;51.146;14.024;2024-02-21T01:04:35;98776.91;;;6.55
71960;BMP280;59832;51.146;14.024;2024-02-21T01:07:03;98778.81;;;6.58
71960;BMP280;59832;51.146;14.024;2024-02-21T01:09:29;98777.34;;;6.57
71960;BMP280;59832;51.146;14.024;2024-02-21T01:11:56;98774.38;;;6.55
71960;BMP280;59832;51.146;14.024;2024-02-21T01:14:22;98777.34;;;6.57
71960;BMP280;59832;51.146;14.024;2024-02-21T01:16:49;98760.53;;;6.61
71960;BMP280;59832;51.146;14.024;2024-02-21T01:19:16;98759.78;;;6.69
71960;BMP280;59832;51.146;14.024;2024-02-21T01:21:43;98753.38;;;6.63
71960;BMP280;59832;51.146;14.024;2024-02-21T01:24:10;98750.56;;;6.64
71960;BMP280;59832;51.146;14.024;2024-02-21T01:26:36;98742.81;;;6.69
71960;BMP280;59832;51.146;14.024;2024-02-21T01:29:03;98748.19;;;6.68
71960;BMP280;59832;51.146;14.024;2024-02-21T01:31:29;98746.53;;;6.72
71960;BMP280;59832;51.146;14.024;2024-02-21T01:33:56;98740.44;;;6.64
71960;BMP280;59832;51.146;14.024;2024-02-21T01:36:22;98740.56;;;6.59
71960;BMP280;59832;51.146;14.024;2024-02-21T01:38:49;98735.81;;;6.58
71960;BMP280;59832;51.146;14.024;2024-02-21T01:41:16;98736.88;;;6.65
71960;BMP280;59832;51.146;14.024;2024-02-21T01:43:42;98730.63;;;6.54
71960;BMP280;59832;51.146;14.024;2024-02-21T01:46:09;98727.63;;;6.61
71960;BMP280;59832;51.146;14.024;2024-02-21T01:48:35;98727.19;;;6.59
71960;BMP280;59832;51.146;14.024;2024-02-21T01:51:03;98725.41;;;6.68
71960;BMP280;59832;51.146;14.024;2024-02-21T01:53:34;98715.75;;;6.61
71960;BMP280;59832;51.146;14.024;2024-02-21T01:56:01;98713.97;;;6.53
71960;BMP280;59832;51.146;14.024;2024-02-21T01:58:28;98700.13;;;6.51
71960;BMP280;59832;51.146;14.024;2024-02-21T02:00:56;98705.63;;;6.53
71960;BMP280;59832;51.146;14.024;2024-02-21T02:03:22;98702.34;;;6.43
71960;BMP280;59832;51.146;14.024;2024-02-21T02:05:49;98697.13;;;6.49
71960;BMP280;59832;51.146;14.024;2024-02-21T02:08:17;98693.44;;;6.55
71960;BMP280;59832;51.146;14.024;2024-02-21T02:10:45;98689.88;;;6.56
71960;BMP280;59832;51.146;14.024;2024-02-21T02:13:12;98694.47;;;6.54
71960;BMP280;59832;51.146;14.024;2024-02-21T02:15:44;98682.88;;;6.53
71960;BMP280;59832;51.146;14.024;2024-02-21T02:18:12;98682.72;;;6.49
71960;BMP280;59832;51.146;14.024;2024-02-21T02:20:39;98685.09;;;6.46
71960;BMP280;59832;51.146;14.024;2024-02-21T02:23:26;98681.53;;;6.55
71960;BMP280;59832;51.146;14.024;2024-02-21T02:25:53;98675.28;;;6.53
71960;BMP280;59832;51.146;14.024;2024-02-21T02:28:20;98678.72;;;6.48
71960;BMP280;59832;51.146;14.024;2024-02-21T02:30:48;98682.41;;;6.51
71960;BMP280;59832;51.146;14.024;2024-02-21T02:33:15;98680.94;;;6.50
71960;BMP280;59832;51.146;14.024;2024-02-21T02:35:43;98683.44;;;6.50
71960;BMP280;59832;51.146;14.024;2024-02-21T02:38:10;98679.59;;;6.52
71960;BMP280;59832;51.146;14.024;2024-02-21T02:40:38;98675.56;;;6.51
71960;BMP280;59832;51.146;14.024;2024-02-21T02:43:06;98677.97;;;6.56
71960;BMP280;59832;51.146;14.024;2024-02-21T02:45:33;98675.75;;;6.55
71960;BMP280;59832;51.146;14.024;2024-02-21T02:47:59;98672.75;;;6.53
71960;BMP280;59832;51.146;14.024;2024-02-21T02:50:27;98671.84;;;6.57
71960;BMP280;59832;51.146;14.024;2024-02-21T02:52:54;98670.38;;;6.56
71960;BMP280;59832;51.146;14.024;2024-02-21T02:55:21;98669.78;;;6.51
71960;BMP280;59832;51.146;14.024;2024-02-21T02:57:47;98664.88;;;6.46
71960;BMP280;59832;51.146;14.024;2024-02-21T03:00:14;98666.50;;;6.50
71960;BMP280;59832;51.146;14.024;2024-02-21T03:02:42;98664.25;;;6.57
71960;BMP280;59832;51.146;14.024;2024-02-21T03:05:14;98663.22;;;6.50
71960;BMP280;59832;51.146;14.024;2024-02-21T03:07:44;98659.06;;;6.45
71960;BMP280;59832;51.146;14.024;2024-02-21T03:10:11;98664.88;;;6.46
71960;BMP280;59832;51.146;14.024;2024-02-21T03:12:38;98667.84;;;6.48
71960;BMP280;59832;51.146;14.024;2024-02-21T03:15:05;98662.03;;;6.47
71960;BMP280;59832;51.146;14.024;2024-02-21T03:17:32;98659.81;;;6.46
71960;BMP280;59832;51.146;14.024;2024-02-21T03:20:02;98658.31;;;6.44
71960;BMP280;59832;51.146;14.024;2024-02-21T03:22:31;98650.16;;;6.39
71960;BMP280;59832;51.146;14.024;2024-02-21T03:24:59;98652.38;;;6.40
71960;BMP280;59832;51.146;14.024;2024-02-21T03:27:25;98650.00;;;6.35
71960;BMP280;59832;51.146;14.024;2024-02-21T03:29:52;98654.59;;;6.33
71960;BMP280;59832;51.146;14.024;2024-02-21T03:32:18;98642.72;;;6.25
71960;BMP280;59832;51.146;14.024;2024-02-21T03:34:45;98647.03;;;6.25
71960;BMP280;59832;51.146;14.024;2024-02-21T03:37:11;98652.38;;;6.23
71960;BMP280;59832;51.146;14.024;2024-02-21T03:39:40;98647.47;;;6.35
71960;BMP280;59832;51.146;14.024;2024-02-21T03:42:07;98646.72;;;6.43
71960;BMP280;59832;51.146;14.024;2024-02-21T03:44:34;98648.22;;;6.36
71960;BMP280;59832;51.146;14.024;2024-02-21T03:47:00;98644.66;;;6.37
71960;BMP280;59832;51.146;14.024;2024-02-21T03:49:27;98640.63;;;6.36
71960;BMP280;59832;51.146;14.024;2024-02-21T03:51:53;98643.75;;;6.33
71960;BMP280;59832;51.146;14.024;2024-02-21T03:54:20;98644.22;;;6.26
71960;BMP280;59832;51.146;14.024;2024-02-21T03:56:46;98645.53;;;6.32
71960;BMP280;59832;51.146;14.024;2024-02-21T03:59:16;98634.56;;;6.28
71960;BMP280;59832;51.146;14.024;2024-02-21T04:01:42;98639.28;;;6.30
71960;BMP280;59832;51.146;14.024;2024-02-21T04:04:10;98635.56;;;6.36
71960;BMP280;59832;51.146;14.024;2024-02-21T04:06:36;98635.69;;;6.31
71960;BMP280;59832;51.146;14.024;2024-02-21T04:09:03;98633.63;;;6.33
71960;BMP280;59832;51.146;14.024;2024-02-21T04:11:29;98634.66;;;6.32
71960;BMP280;59832;51.146;14.024;2024-02-21T04:13:56;98631.56;;;6.35
71960;BMP280;59832;51.146;14.024;2024-02-21T04:16:23;98632.13;;;6.32
71960;BMP280;59832;51.146;14.024;2024-02-21T04:18:50;98615.34;;;6.44
71960;BMP280;59832;51.146;14.024;2024-02-21T04:21:16;98624.28;;;6.42
71960;BMP280;59832;51.146;14.024;2024-02-21T04:23:43;98628.28;;;6.43
71960;BMP280;59832;51.146;14.024;2024-02-21T04:26:09;98619.06;;;6.47
71960;BMP280;59832;51.146;14.024;2024-02-21T04:28:36;98606.41;;;6.47
71960;BMP280;59832;51.146;14.024;2024-02-21T04:31:02;98612.66;;;6.41
71960;BMP280;59832;51.146;14.024;2024-02-21T04:33:29;98621.44;;;6.35
71960;BMP280;59832;51.146;14.024;2024-02-21T04:35:55;98621.16;;;6.36
71960;BMP280;59832;51.146;14.024;2024-02-21T04:38:21;98615.34;;;6.36
71960;BMP280;59832;51.146;14.024;2024-02-21T04:40:48;98603.28;;;6.33
71960;BMP280;59832;51.146;14.024;2024-02-21T04:43:15;98608.50;;;6.36
71960;BMP280;59832;51.146;14.024;2024-02-21T04:45:41;98606.25;;;6.43
71960;BMP280;59832;51.146;14.024;2024-02-21T04:48:08;98611.75;;;6.46
71960;BMP280;59832;51.146;14.024;2024-02-21T04:50:34;98610.13;;;6.41
71960;BMP280;59832;51.146;14.024;2024-02-21T04:53:01;98621.16;;;6.36
71960;BMP280;59832;51.146;14.024;2024-02-21T04:55:27;98615.63;;;6.34
71960;BMP280;59832;51.146;14.024;2024-02-21T04:57:54;98597.06;;;6.39
71960;BMP280;59832;51.146;14.024;2024-02-21T05:00:20;98602.25;;;6.51
71960;BMP280;59832;51.146;14.024;2024-02-21T05:02:47;98600.47;;;6.43
71960;BMP280;59832;51.146;14.024;2024-02-21T05:05:13;98600.19;;;6.36
71960;BMP280;59832;51.146;14.024;2024-02-21T05:07:41;98592.44;;;6.41
71960;BMP280;59832;51.146;14.024;2024-02-21T05:10:08;98589.75;;;6.46
71960;BMP280;59832;51.146;14.024;2024-02-21T05:12:35;98587.38;;;6.41
71960;BMP280;59832;51.146;14.024;2024-02-21T05:15:03;98591.25;;;6.30
71960;BMP280;59832;51.146;14.024;2024-02-21T05:17:29;98586.94;;;6.30
71960;BMP280;59832;51.146;14.024;2024-02-21T05:19:56;98583.25;;;6.28
71960;BMP280;59832;51.146;14.024;2024-02-21T05:22:23;98582.78;;;6.43
71960;BMP280;59832;51.146;14.024;2024-02-21T05:24:49;98585.91;;;6.40
71960;BMP280;59832;51.146;14.024;2024-02-21T05:27:15;98583.97;;;6.37
71960;BMP280;59832;51.146;14.024;2024-02-21T05:29:42;98586.94;;;6.30
71960;BMP280;59832;51.146;14.024;2024-02-21T05:32:08;98582.63;;;6.39
71960;BMP280;59832;51.146;14.024;2024-02-21T05:34:35;98578.44;;;6.52
71960;BMP280;59832;51.146;14.024;2024-02-21T05:37:01;98572.94;;;6.50
71960;BMP280;59832;51.146;14.024;2024-02-21T05:39:28;98579.78;;;6.50
71960;BMP280;59832;51.146;14.024;2024-02-21T05:41:55;98573.09;;;6.54
71960;BMP280;59832;51.146;14.024;2024-02-21T05:44:22;98576.22;;;6.51
71960;BMP280;59832;51.146;14.024;2024-02-21T05:46:48;98567.00;;;6.55
71960;BMP280;59832;51.146;14.024;2024-02-21T05:49:15;98564.00;;;6.53
71960;BMP280;59832;51.146;14.024;2024-02-21T05:51:42;98569.81;;;6.53
71960;BMP280;59832;51.146;14.024;2024-02-21T05:54:08;98561.28;;;6.58
71960;BMP280;59832;51.146;14.024;2024-02-21T05:56:34;98549.72;;;6.57
71960;BMP280;59832;51.146;14.024;2024-02-21T05:59:01;98555.94;;;6.59
71960;BMP280;59832;51.146;14.024;2024-02-21T06:01:27;98558.75;;;6.58
71960;BMP280;59832;51.146;14.024;2024-02-21T06:03:54;98549.41;;;6.58
71960;BMP280;59832;51.146;14.024;2024-02-21T06:06:21;98543.59;;;6.58
71960;BMP280;59832;51.146;14.024;2024-02-21T06:08:51;98554.47;;;6.58
71960;BMP280;59832;51.146;14.024;2024-02-21T06:11:17;98549.41;;;6.67
71960;BMP280;59832;51.146;14.024;2024-02-21T06:13:44;98548.06;;;6.61
71960;BMP280;59832;51.146;14.024;2024-02-21T06:16:10;98544.03;;;6.60
71960;BMP280;59832;51.146;14.024;2024-02-21T06:18:37;98539.00;;;6.60
71960;BMP280;59832;51.146;14.024;2024-02-21T06:21:04;98529.91;;;6.59
71960;BMP280;59832;51.146;14.024;2024-02-21T06:23:31;98531.41;;;6.60
71960;BMP280;59832;51.146;14.024;2024-02-21T06:25:58;98523.81;;;6.60
71960;BMP280;59832;51.146;14.024;2024-02-21T06:28:24;98521.88;;;6.65
71960;BMP280;59832;51.146;14.024;2024-02-21T06:30:51;98510.31;;;6.56
71960;BMP280;59832;51.146;14.024;2024-02-21T06:33:17;98518.91;;;6.63
71960;BMP280;59832;51.146;14.024;2024-02-21T06:35:44;98523.97;;;6.63
71960;BMP280;59832;51.146;14.024;2024-02-21T06:38:13;98516.69;;;6.62
71960;BMP280;59832;51.146;14.024;2024-02-21T06:40:42;98519.03;;;6.67
71960;BMP280;59832;51.146;14.024;2024-02-21T06:43:08;98519.03;;;6.67
71960;BMP280;59832;51.146;14.024;2024-02-21T06:45:35;98514.41;;;6.69
71960;BMP280;59832;51.146;14.024;2024-02-21T06:48:02;98525.59;;;6.68
71960;BMP280;59832;51.146;14.024;2024-02-21T06:50:28;98520.22;;;6.69
71960;BMP280;59832;51.146;14.024;2024-02-21T06:52:55;98524.97;;;6.71
71960;BMP280;59832;51.146;14.024;2024-02-21T06:55:21;98523.34;;;6.66
71960;BMP280;59832;51.146;14.024;2024-02-21T06:57:48;98528.81;;;6.77
71960;BMP280;59832;51.146;14.024;2024-02-21T07:00:15;98523.31;;;6.75
71960;BMP280;59832;51.146;14.024;2024-02-21T07:02:42;98536.88;;;6.70
71960;BMP280;59832;51.146;14.024;2024-02-21T07:05:08;98533.00;;;6.73
71960;BMP280;59832;51.146;14.024;2024-02-21T07:07:35;98531.81;;;6.70
71960;BMP280;59832;51.146;14.024;2024-02-21T07:10:02;98539.97;;;6.76
71960;BMP280;59832;51.146;14.024;2024-02-21T07:12:28;98539.19;;;6.84
71960;BMP280;59832;51.146;14.024;2024-02-21T07:14:54;98533.59;;;6.78
71960;BMP280;59832;51.146;14.024;2024-02-21T07:17:21;98530.13;;;6.83
71960;BMP280;59832;51.146;14.024;2024-02-21T07:19:48;98533.44;;;6.75
71960;BMP280;59832;51.146;14.024;2024-02-21T07:22:14;98526.44;;;6.80
71960;BMP280;59832;51.146;14.024;2024-02-21T07:24:41;98534.63;;;6.77
71960;BMP280;59832;51.146;14.024;2024-02-21T07:27:07;98530.84;;;6.83
71960;BMP280;59832;51.146;14.024;2024-02-21T07:29:33;98530.31;;;6.78
71960;BMP280;59832;51.146;14.024;2024-02-21T07:32:00;98528.97;;;6.80
71960;BMP280;59832;51.146;14.024;2024-02-21T07:34:27;98520.00;;;6.83
71960;BMP280;59832;51.146;14.024;2024-02-21T07:36:53;98529.81;;;6.84
71960;BMP280;59832;51.146;14.024;2024-02-21T07:39:20;98529.47;;;6.95
71960;BMP280;59832;51.146;14.024;2024-02-21T07:41:46;98535.72;;;6.97
71960;BMP280;59832;51.146;14.024;2024-02-21T07:44:15;98536.31;;;7.03
71960;BMP280;59832;51.146;14.024;2024-02-21T07:46:41;98531.13;;;6.99
71960;BMP280;59832;51.146;14.024;2024-02-21T07:49:07;98522.72;;;7.07
71960;BMP280;59832;51.146;14.024;2024-02-21T07:51:34;98511.69;;;7.12
71960;BMP280;59832;51.146;14.024;2024-02-21T07:54:02;98517.72;;;7.19
71960;BMP280;59832;51.146;14.024;2024-02-21T07:56:30;98514.75;;;7.47
71960;BMP280;59832;51.146;14.024;2024-02-21T07:58:57;98518.66;;;7.65
71960;BMP280;59832;51.146;14.024;2024-02-21T08:01:24;98509.97;;;7.66
71960;BMP280;59832;51.146;14.024;2024-02-21T08:03:50;98512.97;;;7.80
71960;BMP280;59832;51.146;14.024;2024-02-21T08:06:17;98528.03;;;7.85
71960;BMP280;59832;51.146;14.024;2024-02-21T08:08:43;98533.31;;;7.92
71960;BMP280;59832;51.146;14.024;2024-02-21T08:11:10;98524.00;;;7.84
71960;BMP280;59832;51.146;14.024;2024-02-21T08:13:36;98526.31;;;7.89
71960;BMP280;59832;51.146;14.024;2024-02-21T08:16:03;98516.91;;;7.90
71960;BMP280;59832;51.146;14.024;2024-02-21T08:18:30;98510.41;;;8.01
71960;BMP280;59832;51.146;14.024;2024-02-21T08:20:56;98513.91;;;7.96
71960;BMP280;59832;51.146;14.024;2024-02-21T08:23:23;98517.38;;;8.04
71960;BMP280;59832;51.146;14.024;2024-02-21T08:25:50;98508.66;;;8.13
71960;BMP280;59832;51.146;14.024;2024-02-21T08:28:17;98506.94;;;8.05
71960;BMP280;59832;51.146;14.024;2024-02-21T08:30:43;98512.50;;;7.99
71960;BMP280;59832;51.146;14.024;2024-02-21T08:33:15;98517.16;;;7.97
71960;BMP280;59832;51.146;14.024;2024-02-21T08:35:43;98515.44;;;7.89
71960;BMP280;59832;51.146;14.024;2024-02-21T08:38:09;98509.16;;;7.95
71960;BMP280;59832;51.146;14.024;2024-02-21T08:40:36;98509.41;;;7.81
71960;BMP280;59832;51.146;14.024;2024-02-21T08:43:03;98507.31;;;7.83
71960;BMP280;59832;51.146;14.024;2024-02-21T08:45:30;98510.53;;;7.71
71960;BMP280;59832;51.146;14.024;2024-02-21T08:47:57;98508.28;;;7.70
71960;BMP280;59832;51.146;14.024;2024-02-21T08:50:24;98515.59;;;7.71
71960;BMP280;59832;51.146;14.024;2024-02-21T08:52:55;98505.72;;;7.58
71960;BMP280;59832;51.146;14.024;2024-02-21T08:55:22;98506.88;;;7.60
71960;BMP280;59832;51.146;14.024;2024-02-21T08:57:48;98517.47;;;7.62
71960;BMP280;59832;51.146;14.024;2024-02-21T09:00:15;98511.53;;;7.58
71960;BMP280;59832;51.146;14.024;2024-02-21T09:02:42;98521.78;;;7.62
71960;BMP280;59832;51.146;14.024;2024-02-21T09:05:10;98513.69;;;7.68
71960;BMP280;59832;51.146;14.024;2024-02-21T09:07:36;98501.63;;;7.65
71960;BMP280;59832;51.146;14.024;2024-02-21T09:10:03;98500.97;;;7.56
71960;BMP280;59832;51.146;14.024;2024-02-21T09:12:30;98505.72;;;7.58
71960;BMP280;59832;51.146;14.024;2024-02-21T09:14:56;98491.03;;;7.51
71960;BMP280;59832;51.146;14.024;2024-02-21T09:17:23;98498.31;;;7.53
71960;BMP280;59832;51.146;14.024;2024-02-21T09:19:51;98488.28;;;7.56
71960;BMP280;59832;51.146;14.024;2024-02-21T09:22:18;98488.91;;;7.53
71960;BMP280;59832;51.146;14.024;2024-02-21T09:24:44;98490.97;;;7.60
71960;BMP280;59832;51.146;14.024;2024-02-21T09:27:11;98489.28;;;7.64
71960;BMP280;59832;51.146;14.024;2024-02-21T09:29:38;98492.34;;;7.69
71960;BMP280;59832;51.146;14.024;2024-02-21T09:32:06;98488.59;;;7.76
71960;BMP280;59832;51.146;14.024;2024-02-21T09:34:33;98492.19;;;7.75
71960;BMP280;59832;51.146;14.024;2024-02-21T09:37:00;98493.00;;;7.79
71960;BMP280;59832;51.146;14.024;2024-02-21T09:39:26;98494.28;;;7.72
71960;BMP280;59832;51.146;14.024;2024-02-21T09:42:01;98506.50;;;7.70
71960;BMP280;59832;51.146;14.024;2024-02-21T09:44:37;98507.88;;;7.68
71960;BMP280;59832;51.146;14.024;2024-02-21T09:47:10;98514.25;;;7.74
71960;BMP280;59832;51.146;14.024;2024-02-21T09:49:40;98513.94;;;7.76
71960;BMP280;59832;51.146;14.024;2024-02-21T09:52:09;98505.06;;;7.82
71960;BMP280;59832;51.146;14.024;2024-02-21T09:54:36;98505.38;;;7.80
71960;BMP280;59832;51.146;14.024;2024-02-21T09:57:03;98513.63;;;7.77
71960;BMP280;59832;51.146;14.024;2024-02-21T09:59:31;98508.94;;;7.67
71960;BMP280;59832;51.146;14.024;2024-02-21T10:01:58;98510.59;;;7.63
71960;BMP280;59832;51.146;14.024;2024-02-21T10:04:29;98503.97;;;7.70
71960;BMP280;59832;51.146;14.024;2024-02-21T10:06:56;98508.38;;;7.61
71960;BMP280;59832;51.146;14.024;2024-02-21T10:09:24;98510.72;;;7.66
71960;BMP280;59832;51.146;14.024;2024-02-21T10:11:54;98513.81;;;7.72
71960;BMP280;59832;51.146;14.024;2024-02-21T10:14:21;98508.44;;;7.73
71960;BMP280;59832;51.146;14.024;2024-02-21T10:16:48;98507.56;;;7.69
71960;BMP280;59832;51.146;14.024;2024-02-21T10:19:19;98502.56;;;7.61
71960;BMP280;59832;51.146;14.024;2024-02-21T10:22:03;98504.78;;;7.62
71960;BMP280;59832;51.146;14.024;2024-02-21T10:24:34;98504.50;;;7.64
71960;BMP280;59832;51.146;14.024;2024-02-21T10:27:05;98505.00;;;7.69
71960;BMP280;59832;51.146;14.024;2024-02-21T10:29:35;98507.91;;;7.80
71960;BMP280;59832;51.146;14.024;2024-02-21T10:32:09;98496.81;;;7.72
71960;BMP280;59832;51.146;14.024;2024-02-21T10:34:36;98504.50;;;7.64
71960;BMP280;59832;51.146;14.024;2024-02-21T10:37:04;98499.94;;;7.69
71960;BMP280;59832;51.146;14.024;2024-02-21T10:39:41;98502.38;;;7.66
71960;BMP280;59832;51.146;14.024;2024-02-21T10:42:11;98504.28;;;7.69
71960;BMP280;59832;51.146;14.024;2024-02-21T10:44:40;98494.41;;;7.76
71960;BMP280;59832;51.146;14.024;2024-02-21T10:47:09;98488.09;;;7.82
71960;BMP280;59832;51.146;14.024;2024-02-21T10:49:40;98488.53;;;7.96
71960;BMP280;59832;51.146;14.024;2024-02-21T10:54:44;98478.41;;;7.96
71960;BMP280;59832;51.146;14.024;2024-02-21T10:57:13;98468.91;;;7.93
71960;BMP280;59832;51.146;14.024;2024-02-21T10:59:40;98464.69;;;7.97
71960;BMP280;59832;51.146;14.024;2024-02-21T11:02:07;98457.50;;;7.99
71960;BMP280;59832;51.146;14.024;2024-02-21T11:04:34;98459.81;;;7.92
71960;BMP280;59832;51.146;14.024;2024-02-21T11:07:06;98456.13;;;8.02
71960;BMP280;59832;51.146;14.024;2024-02-21T11:09:36;98452.22;;;8.04
71960;BMP280;59832;51.146;14.024;2024-02-21T11:12:05;98450.63;;;8.00
71960;BMP280;59832;51.146;14.024;2024-02-21T11:14:32;98446.31;;;8.12
71960;BMP280;59832;51.146;14.024;2024-02-21T11:16:59;98442.41;;;8.15
71960;BMP280;59832;51.146;14.024;2024-02-21T11:19:27;98429.13;;;8.18
71960;BMP280;59832;51.146;14.024;2024-02-21T11:21:55;98428.59;;;8.25
71960;BMP280;59832;51.146;14.024;2024-02-21T11:24:29;98425.19;;;8.33
71960;BMP280;59832;51.146;14.024;2024-02-21T11:27:45;98423.72;;;8.32
71960;BMP280;59832;51.146;14.024;2024-02-21T11:32:11;98414.13;;;8.49
71960;BMP280;59832;51.146;14.024;2024-02-21T11:34:41;98407.03;;;8.55
71960;BMP280;59832;51.146;14.024;2024-02-21T11:37:14;98410.72;;;8.57
71960;BMP280;59832;51.146;14.024;2024-02-21T11:39:43;98410.16;;;8.64
71960;BMP280;59832;51.146;14.024;2024-02-21T11:42:10;98394.41;;;8.71
71960;BMP280;59832;51.146;14.024;2024-02-21T11:44:38;98390.41;;;8.57
71960;BMP280;59832;51.146;14.024;2024-02-21T11:47:06;98387.78;;;8.54
71960;BMP280;59832;51.146;14.024;2024-02-21T11:49:37;98383.13;;;8.56
71960;BMP280;59832;51.146;14.024;2024-02-21T11:52:05;98378.34;;;8.67
71960;BMP280;59832;51.146;14.024;2024-02-21T11:54:31;98374.78;;;8.55
71960;BMP280;59832;51.146;14.024;2024-02-21T11:56:58;98379.84;;;8.55
71960;BMP280;59832;51.146;14.024;2024-02-21T11:59:24;98383.13;;;8.56
71960;BMP280;59832;51.146;14.024;2024-02-21T12:01:52;98382.81;;;8.70
71960;BMP280;59832;51.146;14.024;2024-02-21T12:04:20;98375.50;;;8.68
71960;BMP280;59832;51.146;14.024;2024-02-21T12:06:46;98377.66;;;8.54
71960;BMP280;59832;51.146;14.024;2024-02-21T12:09:16;98364.34;;;8.45
71960;BMP280;59832;51.146;14.024;2024-02-21T12:11:43;98366.97;;;8.48
71960;BMP280;59832;51.146;14.024;2024-02-21T12:14:10;98355.22;;;8.56
71960;BMP280;59832;51.146;14.024;2024-02-21T12:16:37;98357.13;;;8.59
71960;BMP280;59832;51.146;14.024;2024-02-21T12:19:03;98349.06;;;8.69
71960;BMP280;59832;51.146;14.024;2024-02-21T12:21:32;98334.25;;;8.71
71960;BMP280;59832;51.146;14.024;2024-02-21T12:26:40;98333.09;;;8.69
71960;BMP280;59832;51.146;14.024;2024-02-21T12:29:08;98336.03;;;8.71
71960;BMP280;59832;51.146;14.024;2024-02-21T12:31:38;98330.31;;;8.74
71960;BMP280;59832;51.146;14.024;2024-02-21T12:34:05;98318.19;;;8.67
71960;BMP280;59832;51.146;14.024;2024-02-21T12:36:32;98318.81;;;8.76
71960;BMP280;59832;51.146;14.024;2024-02-21T12:38:59;98313.16;;;8.83
71960;BMP280;59832;51.146;14.024;2024-02-21T12:41:28;98304.78;;;8.94
71960;BMP280;59832;51.146;14.024;2024-02-21T12:43:56;98302.13;;;8.91
71960;BMP280;59832;51.146;14.024;2024-02-21T12:46:22;98292.34;;;8.89
71960;BMP280;59832;51.146;14.024;2024-02-21T12:48:50;98284.34;;;8.91
71960;BMP280;59832;51.146;14.024;2024-02-21T12:51:16;98286.25;;;8.94
71960;BMP280;59832;51.146;14.024;2024-02-21T12:53:48;98283.84;;;8.97
71960;BMP280;59832;51.146;14.024;2024-02-21T12:56:16;98281.03;;;9.02
71960;BMP280;59832;51.146;14.024;2024-02-21T12:58:43;98264.19;;;9.26
71960;BMP280;59832;51.146;14.024;2024-02-21T13:01:09;98266.16;;;9.48
71960;BMP280;59832;51.146;14.024;2024-02-21T13:03:36;98261.63;;;9.57
71960;BMP280;59832;51.146;14.024;2024-02-21T13:06:02;98251.56;;;9.45
71960;BMP280;59832;51.146;14.024;2024-02-21T13:08:29;98253.88;;;9.50
71960;BMP280;59832;51.146;14.024;2024-02-21T13:10:55;98257.44;;;9.65
71960;BMP280;59832;51.146;14.024;2024-02-21T13:13:22;98255.56;;;9.62
71960;BMP280;59832;51.146;14.024;2024-02-21T13:15:49;98245.88;;;9.67
71960;BMP280;59832;51.146;14.024;2024-02-21T13:18:15;98247.44;;;9.72
71960;BMP280;59832;51.146;14.024;2024-02-21T13:20:42;98234.38;;;9.73
71960;BMP280;59832;51.146;14.024;2024-02-21T13:23:08;98222.66;;;9.69
71960;BMP280;59832;51.146;14.024;2024-02-21T13:25:35;98218.22;;;9.81
71960;BMP280;59832;51.146;14.024;2024-02-21T13:28:01;98216.94;;;9.72
71960;BMP280;59832;51.146;14.024;2024-02-21T13:30:29;98213.91;;;9.85
71960;BMP280;59832;51.146;14.024;2024-02-21T13:32:55;98211.94;;;9.94
71960;BMP280;59832;51.146;14.024;2024-02-21T13:35:22;98203.75;;;9.85
71960;BMP280;59832;51.146;14.024;2024-02-21T13:37:49;98202.63;;;9.83
71960;BMP280;59832;51.146;14.024;2024-02-21T13:40:16;98201.38;;;9.92
71960;BMP280;59832;51.146;14.024;2024-02-21T13:42:43;98204.38;;;9.98
71960;BMP280;59832;51.146;14.024;2024-02-21T13:45:09;98193.19;;;9.83
71960;BMP280;59832;51.146;14.024;2024-02-21T13:47:36;98181.22;;;9.84
71960;BMP280;59832;51.146;14.024;2024-02-21T13:50:06;98173.84;;;9.79
71960;BMP280;59832;51.146;14.024;2024-02-21T13:52:37;98172.88;;;9.83
71960;BMP280;59832;51.146;14.024;2024-02-21T13:55:04;98163.63;;;9.75
71960;BMP280;59832;51.146;14.024;2024-02-21T13:57:30;98158.38;;;9.68
71960;BMP280;59832;51.146;14.024;2024-02-21T13:59:57;98166.50;;;9.74
71960;BMP280;59832;51.146;14.024;2024-02-21T14:02:23;98156.75;;;9.76
71960;BMP280;59832;51.146;14.024;2024-02-21T14:04:50;98154.72;;;9.85
71960;BMP280;59832;51.146;14.024;2024-02-21T14:07:17;98149.59;;;9.81
71960;BMP280;59832;51.146;14.024;2024-02-21T14:09:43;98137.66;;;9.85
71960;BMP280;59832;51.146;14.024;2024-02-21T14:12:10;98152.72;;;9.75
71960;BMP280;59832;51.146;14.024;2024-02-21T14:14:36;98146.31;;;9.81
71960;BMP280;59832;51.146;14.024;2024-02-21T14:17:05;98141.00;;;9.70